Main page
METAR-TAF:

METAR-TAF

Airports :

Bauru Airport

Bauru, São Paulo, Brazil

latitude: 22-19S, longitude: 049-04W, elevation: 590 m

Current weather observation

The report was made 10 hours and 39 minutes ago, at 17:00 UTC
Wind 9 kt from the East with gusts up to 20 kt
Temperature 25°C
Humidity 54%
Pressure 1023 hPa
Visibility 10 km or more
no clouds below 1500 m and no cumulonimbus

METAR: SBBU 161700Z 08009G20KT CAVOK 25/15 Q1023

Time: 00:39 (03:39 UTC)

Forecast

The report was made 5 hours and 39 minutes ago, at 22:00 UTC
Forecast valid from 17 at 00 UTC to 17 at 12 UTC
Wind 8 kt from the East/Southeast
Visibility 10 km or more
no clouds below 1500 m and no cumulonimbus

TAF: SBBU 162200Z 1700/1712 12008KT CAVOK TX19/1700Z TN14/1708Z RMK PER

Weather observations and forecasts of more than 4000 airports (METAR and TAF reports).

The available stations are represented by yellow and red dots on the map.

Hover mouse over dot to see the name of the station.

Then click to see weather observations and forecasts.

To change the map : click on the green buttons with a black cross to zoom in, on the green button with a dash to zoom out, or on the green arrows for adjacent maps.


METAR-TAF: